createdAt,value
2019-03-18T00:01:37.789Z,3.42
2019-03-18T00:04:04.028Z,3.30
2019-03-18T00:06:30.431Z,5.75
2019-03-18T00:08:56.668Z,3.87
2019-03-18T00:11:22.916Z,4.22
2019-03-18T00:13:49.296Z,3.80
2019-03-18T00:16:15.733Z,4.85
2019-03-18T00:18:42.075Z,3.58
2019-03-18T00:21:08.321Z,3.50
2019-03-18T00:23:34.760Z,4.20
2019-03-18T00:26:01.193Z,3.60
2019-03-18T00:28:27.580Z,3.55
2019-03-18T00:30:54.018Z,3.60
2019-03-18T00:33:20.253Z,3.47
2019-03-18T00:35:46.734Z,4.30
2019-03-18T00:38:12.970Z,3.92
2019-03-18T00:40:39.313Z,4.65
2019-03-18T00:43:05.865Z,3.47
2019-03-18T00:45:32.201Z,2.87
2019-03-18T00:47:58.545Z,2.87
2019-03-18T00:50:24.820Z,3.90
2019-03-18T00:52:51.160Z,4.17
2019-03-18T00:55:17.602Z,5.17
2019-03-18T00:57:44.057Z,3.35
2019-03-18T01:00:13.205Z,4.90
2019-03-18T01:02:39.580Z,5.40
2019-03-18T01:05:06.086Z,5.92
2019-03-18T01:07:32.324Z,4.05
2019-03-18T01:09:58.558Z,7.05
2019-03-18T01:12:24.943Z,3.35
2019-03-18T01:14:51.279Z,3.08
2019-03-18T01:17:17.717Z,5.75
2019-03-18T01:19:43.967Z,5.60
2019-03-18T01:22:10.206Z,6.37
2019-03-18T01:24:36.543Z,6.58
2019-03-18T01:27:02.981Z,4.72
2019-03-18T01:29:29.325Z,3.77
2019-03-18T01:31:55.672Z,3.25
2019-03-18T01:34:21.998Z,4.47
2019-03-18T01:36:48.460Z,4.80
2019-03-18T01:39:14.708Z,4.45
2019-03-18T01:41:41.176Z,5.42
2019-03-18T01:44:07.654Z,3.10
2019-03-18T01:46:33.968Z,3.67
2019-03-18T01:49:00.217Z,5.87
2019-03-18T01:51:26.552Z,5.25
2019-03-18T01:53:52.897Z,7.12
2019-03-18T01:56:19.281Z,3.10
2019-03-18T01:58:45.631Z,4.87
2019-03-18T02:01:12.073Z,3.20
2019-03-18T02:03:38.418Z,3.00
2019-03-18T02:06:04.763Z,7.37
2019-03-18T02:08:31.018Z,4.25
2019-03-18T02:10:57.463Z,6.42
2019-03-18T02:13:23.897Z,2.72
2019-03-18T02:15:53.505Z,4.33
2019-03-18T02:18:18.357Z,4.40
2019-03-18T02:20:44.591Z,2.50
2019-03-18T02:23:10.892Z,4.42
2019-03-18T02:25:37.224Z,3.55
2019-03-18T02:28:03.689Z,5.83
2019-03-18T02:30:30.149Z,3.30
2019-03-18T02:32:56.389Z,4.37
2019-03-18T02:35:22.722Z,2.92
2019-03-18T02:37:49.036Z,10.85
2019-03-18T02:40:15.511Z,6.70
2019-03-18T02:42:41.853Z,5.05
2019-03-18T02:45:09.966Z,5.90
2019-03-18T02:47:36.297Z,3.87
2019-03-18T02:50:04.136Z,6.25
2019-03-18T02:52:30.369Z,3.37
2019-03-18T02:54:56.662Z,5.37
2019-03-18T02:57:22.893Z,3.65
2019-03-18T02:59:49.125Z,4.28
2019-03-18T03:02:15.623Z,7.03
2019-03-18T03:04:41.975Z,3.47
2019-03-18T03:07:08.309Z,4.78
2019-03-18T03:09:34.656Z,7.05
2019-03-18T03:12:01.102Z,7.53
2019-03-18T03:14:27.434Z,9.03
2019-03-18T03:16:53.771Z,4.65
2019-03-18T03:19:20.110Z,7.20
2019-03-18T03:21:46.372Z,6.53
2019-03-18T03:24:12.737Z,4.95
2019-03-18T03:26:39.071Z,3.17
2019-03-18T03:29:05.305Z,5.28
2019-03-18T03:31:31.546Z,5.08
2019-03-18T03:33:57.810Z,2.65
2019-03-18T03:36:24.236Z,3.92
2019-03-18T03:38:50.554Z,5.33
2019-03-18T03:41:18.261Z,4.17
2019-03-18T03:43:45.060Z,6.37
2019-03-18T03:46:11.551Z,4.83
2019-03-18T03:48:37.884Z,7.30
2019-03-18T03:51:04.223Z,4.92
2019-03-18T03:53:31.075Z,5.85
2019-03-18T03:55:57.638Z,4.17
2019-03-18T03:58:24.185Z,6.00
2019-03-18T04:00:50.741Z,4.33
2019-03-18T04:03:17.281Z,7.65
2019-03-18T04:05:43.719Z,8.05
2019-03-18T04:08:10.170Z,4.12
2019-03-18T04:10:36.432Z,3.52
2019-03-18T04:13:02.778Z,2.40
2019-03-18T04:15:29.134Z,4.30
2019-03-18T04:17:55.365Z,6.78
2019-03-18T04:20:21.606Z,4.47
2019-03-18T04:22:47.977Z,3.35
2019-03-18T04:25:14.405Z,4.03
2019-03-18T04:27:40.736Z,2.65
2019-03-18T04:30:10.013Z,4.78
2019-03-18T04:32:36.374Z,4.20
2019-03-18T04:35:04.409Z,7.37
2019-03-18T04:37:30.669Z,3.67
2019-03-18T04:39:56.990Z,8.43
2019-03-18T04:42:23.328Z,5.28
2019-03-18T04:44:49.581Z,3.65
2019-03-18T04:47:16.030Z,5.70
2019-03-18T04:49:42.350Z,6.15
2019-03-18T04:52:08.765Z,3.52
2019-03-18T04:54:35.140Z,4.87
2019-03-18T04:57:01.588Z,3.60
2019-03-18T04:59:27.932Z,4.60
2019-03-18T05:01:54.264Z,6.87
2019-03-18T05:04:20.508Z,5.20
2019-03-18T05:06:46.844Z,6.67
2019-03-18T05:09:13.084Z,6.67
2019-03-18T05:11:39.318Z,7.28
2019-03-18T05:14:05.784Z,5.60
2019-03-18T05:16:32.122Z,6.25
2019-03-18T05:18:58.404Z,7.58
2019-03-18T05:21:24.656Z,6.42
2019-03-18T05:23:50.988Z,7.20
2019-03-18T05:26:17.433Z,8.50
2019-03-18T05:28:43.678Z,3.55
2019-03-18T05:31:09.931Z,6.80
2019-03-18T05:33:36.161Z,3.60
2019-03-18T05:36:02.656Z,2.30
2019-03-18T05:38:28.998Z,4.42
2019-03-18T05:40:55.405Z,8.88
2019-03-18T05:43:21.649Z,6.75
2019-03-18T05:45:47.990Z,6.00
2019-03-18T05:48:14.453Z,4.65
2019-03-18T05:50:40.699Z,6.20
2019-03-18T05:53:07.045Z,9.05
2019-03-18T05:55:33.388Z,4.85
2019-03-18T05:57:59.683Z,6.28
2019-03-18T06:00:26.038Z,7.05
2019-03-18T06:02:52.269Z,9.15
2019-03-18T06:05:18.609Z,4.15
2019-03-18T06:07:44.849Z,7.45
2019-03-18T06:10:11.806Z,5.15
2019-03-18T06:12:38.079Z,5.45
2019-03-18T06:15:07.921Z,7.80
2019-03-18T06:17:34.260Z,5.85
2019-03-18T06:20:00.614Z,4.85
2019-03-18T06:22:26.949Z,6.10
2019-03-18T06:24:53.184Z,6.83
2019-03-18T06:27:19.557Z,6.55
2019-03-18T06:29:45.900Z,3.83
2019-03-18T06:32:12.132Z,6.78
2019-03-18T06:34:38.396Z,3.15
2019-03-18T06:37:04.728Z,6.70
2019-03-18T06:39:31.069Z,5.28
2019-03-18T06:41:57.600Z,2.65
2019-03-18T06:44:23.837Z,5.40
2019-03-18T06:46:50.088Z,6.25
2019-03-18T06:49:16.493Z,5.75
2019-03-18T06:51:42.717Z,4.53
2019-03-18T06:54:08.971Z,6.45
2019-03-18T06:56:35.341Z,4.00
2019-03-18T06:59:01.585Z,6.03
2019-03-18T07:01:28.016Z,3.98
2019-03-18T07:03:54.466Z,6.03
2019-03-18T07:06:20.813Z,3.00
2019-03-18T07:08:47.046Z,3.55
2019-03-18T07:11:13.401Z,2.87
2019-03-18T07:13:39.644Z,3.50
2019-03-18T07:16:06.209Z,5.45
2019-03-18T07:18:32.444Z,3.40
2019-03-18T07:20:58.673Z,3.12
2019-03-18T07:23:25.026Z,6.50
2019-03-18T07:25:51.374Z,4.17
2019-03-18T07:28:18.253Z,6.17
2019-03-18T07:30:44.554Z,3.15
2019-03-18T07:33:10.997Z,3.25
2019-03-18T07:35:37.344Z,3.75
2019-03-18T07:38:03.885Z,3.42
2019-03-18T07:40:30.237Z,1.15
2019-03-18T07:42:56.557Z,2.85
2019-03-18T07:45:22.897Z,2.37
2019-03-18T07:47:49.145Z,3.02
2019-03-18T07:50:15.782Z,1.65
2019-03-18T07:52:42.202Z,2.60
2019-03-18T07:55:08.777Z,3.02
2019-03-18T07:57:35.220Z,3.77
2019-03-18T08:00:06.741Z,3.02
2019-03-18T08:02:32.989Z,2.02
2019-03-18T08:04:59.225Z,2.55
2019-03-18T08:07:25.658Z,1.82
2019-03-18T08:09:51.914Z,1.00
2019-03-18T08:12:18.244Z,2.10
2019-03-18T08:14:44.494Z,2.50
2019-03-18T08:17:10.745Z,0.80
2019-03-18T08:19:36.996Z,0.93
2019-03-18T08:22:03.324Z,1.80
2019-03-18T08:24:29.676Z,1.12
2019-03-18T08:26:55.905Z,1.70
2019-03-18T08:32:15.078Z,1.32
2019-03-18T08:34:54.889Z,1.35
2019-03-18T08:37:34.965Z,2.90
2019-03-18T08:40:15.197Z,1.00
2019-03-18T08:42:55.058Z,2.25
2019-03-18T08:45:34.842Z,1.57
2019-03-18T08:48:14.018Z,2.33
2019-03-18T08:50:53.390Z,1.07
2019-03-18T08:53:33.278Z,0.90
2019-03-18T08:56:13.527Z,1.05
2019-03-18T08:58:53.268Z,2.55
2019-03-18T09:01:19.629Z,2.05
2019-03-18T09:04:05.980Z,1.07
2019-03-18T09:06:52.181Z,0.60
2019-03-18T09:09:32.106Z,1.65
2019-03-18T09:12:12.186Z,1.45
2019-03-18T09:14:52.141Z,1.25
2019-03-18T09:17:29.422Z,2.08
2019-03-18T09:20:09.348Z,2.25
2019-03-18T09:22:49.060Z,0.80
2019-03-18T09:25:29.077Z,0.82
2019-03-18T09:28:08.209Z,1.87
2019-03-18T09:30:45.374Z,1.57
2019-03-18T09:33:31.478Z,0.70
2019-03-18T09:36:11.413Z,1.80
2019-03-18T09:38:50.514Z,4.45
2019-03-18T09:41:29.729Z,2.92
2019-03-18T09:44:09.654Z,1.75
2019-03-18T09:46:46.890Z,1.55
2019-03-18T09:49:33.005Z,2.87
2019-03-18T09:52:13.095Z,2.90
2019-03-18T09:54:52.807Z,3.75
2019-03-18T09:57:33.067Z,2.98
2019-03-18T10:00:12.974Z,3.45
2019-03-18T10:02:52.841Z,1.40
2019-03-18T10:05:32.758Z,6.05
2019-03-18T10:08:12.865Z,4.00
2019-03-18T10:10:52.230Z,4.22
2019-03-18T10:13:29.514Z,6.03
2019-03-18T10:16:15.623Z,6.80
2019-03-18T10:18:55.517Z,4.83
2019-03-18T10:21:35.546Z,3.77
2019-03-18T10:24:15.705Z,5.20
2019-03-18T10:26:55.521Z,3.80
2019-03-18T10:29:35.722Z,3.52
2019-03-18T10:32:15.557Z,4.42
2019-03-18T10:34:54.908Z,2.65
2019-03-18T10:37:35.698Z,4.12
2019-03-18T10:40:15.699Z,5.80
2019-03-18T10:42:55.690Z,3.45
2019-03-18T10:45:35.623Z,3.80
2019-03-18T10:48:15.558Z,3.05
2019-03-18T10:50:55.609Z,4.55
2019-03-18T10:53:36.016Z,5.08
2019-03-18T10:56:15.982Z,4.65
2019-03-18T10:58:56.082Z,3.95
2019-03-18T11:01:36.291Z,5.40
2019-03-18T11:04:15.437Z,7.03
2019-03-18T11:06:54.495Z,6.87
2019-03-18T11:09:33.781Z,3.35
2019-03-18T11:12:13.775Z,4.17
2019-03-18T11:14:53.739Z,2.67
2019-03-18T11:17:33.698Z,6.10
2019-03-18T11:20:12.866Z,4.28
2019-03-18T11:22:50.201Z,4.97
2019-03-18T11:25:36.312Z,4.10
2019-03-18T11:28:15.857Z,2.92
2019-03-18T11:30:55.993Z,5.67
2019-03-18T11:33:35.165Z,2.60
2019-03-18T11:36:15.139Z,1.75
2019-03-18T11:38:55.165Z,3.65
2019-03-18T11:41:32.659Z,1.92
2019-03-18T11:44:12.356Z,3.92
2019-03-18T11:46:52.480Z,3.83
2019-03-18T11:49:39.499Z,2.30
2019-03-18T11:52:13.277Z,2.30
2019-03-18T11:54:52.634Z,2.55
2019-03-18T11:57:32.466Z,1.77
2019-03-18T12:00:11.656Z,3.12
2019-03-18T12:02:51.649Z,1.32
2019-03-18T12:05:30.881Z,3.85
2019-03-18T12:08:10.741Z,3.12
2019-03-18T12:10:50.519Z,3.55
2019-03-18T12:13:29.653Z,1.75
2019-03-18T12:16:06.975Z,2.65
2019-03-18T12:18:46.580Z,2.85
2019-03-18T12:21:26.602Z,3.17
2019-03-18T12:24:06.678Z,2.17
2019-03-18T12:26:49.118Z,3.95
2019-03-18T12:29:27.626Z,3.52
2019-03-18T12:32:07.750Z,5.90
2019-03-18T12:34:47.733Z,1.45
2019-03-18T12:37:26.818Z,2.67
2019-03-18T12:40:06.933Z,1.72
2019-03-18T12:42:46.979Z,2.92
2019-03-18T12:45:27.029Z,3.50
2019-03-18T12:48:07.026Z,1.75
2019-03-18T12:50:55.786Z,2.87
2019-03-18T12:53:27.270Z,2.45
2019-03-18T12:56:04.584Z,2.02
2019-03-18T12:58:50.818Z,3.85
2019-03-18T13:01:30.527Z,1.90
2019-03-18T13:04:09.949Z,2.08
2019-03-18T13:06:49.205Z,2.15
2019-03-18T13:09:29.196Z,2.15
2019-03-18T13:12:09.386Z,2.90
2019-03-18T13:14:49.438Z,1.42
2019-03-18T13:17:26.729Z,1.52
2019-03-18T13:20:06.273Z,1.82
2019-03-18T13:22:46.270Z,2.17
2019-03-18T13:25:25.424Z,1.80
2019-03-18T13:28:04.597Z,2.25
2019-03-18T13:30:44.555Z,1.80
2019-03-18T13:33:24.423Z,1.20
2019-03-18T13:36:04.700Z,1.42
2019-03-18T13:38:44.802Z,0.70
2019-03-18T13:41:24.693Z,1.05
2019-03-18T13:44:04.173Z,1.20
2019-03-18T13:46:30.533Z,1.30
2019-03-18T13:49:16.621Z,1.77
2019-03-18T13:52:02.834Z,1.90
2019-03-18T13:54:42.415Z,1.25
2019-03-18T13:57:22.398Z,1.65
2019-03-18T14:00:02.454Z,1.85
2019-03-18T14:02:42.489Z,2.25
2019-03-18T14:05:22.460Z,1.17
2019-03-18T14:08:01.231Z,2.40
2019-03-18T14:10:38.714Z,1.85
2019-03-18T14:13:24.919Z,0.80
2019-03-18T14:16:04.589Z,1.37
2019-03-18T14:18:44.543Z,1.75
2019-03-18T14:21:33.285Z,1.85
2019-03-18T14:24:05.787Z,1.50
2019-03-18T14:26:45.855Z,2.58
2019-03-18T14:29:23.138Z,2.95
2019-03-18T14:32:09.270Z,2.20
2019-03-18T14:34:48.777Z,1.52
2019-03-18T14:37:28.741Z,0.75
2019-03-18T14:40:08.704Z,1.20
2019-03-18T14:42:48.651Z,1.07
2019-03-18T14:45:28.556Z,0.68
2019-03-18T14:48:09.673Z,0.95
2019-03-18T14:50:46.961Z,0.70
2019-03-18T14:53:33.174Z,1.25
2019-03-18T14:56:12.649Z,3.67
2019-03-18T14:58:49.961Z,0.98
2019-03-18T15:01:30.000Z,0.80
2019-03-18T15:04:09.955Z,1.10
2019-03-18T15:06:49.955Z,1.65
2019-03-18T15:09:29.937Z,1.35
2019-03-18T15:12:09.742Z,0.90
2019-03-18T15:14:49.551Z,1.05
2019-03-18T15:17:29.463Z,1.05
2019-03-18T15:20:12.114Z,2.85
2019-03-18T15:22:50.424Z,0.72
2019-03-18T15:25:29.607Z,0.90
2019-03-18T15:28:09.730Z,0.60
2019-03-18T15:30:49.706Z,0.90
2019-03-18T15:33:29.646Z,0.70
2019-03-18T15:36:09.515Z,0.68
2019-03-18T15:38:48.597Z,0.82
2019-03-18T15:41:27.789Z,0.50
2019-03-18T15:44:06.968Z,0.50
2019-03-18T15:46:46.916Z,1.20
2019-03-18T15:49:26.121Z,0.70
2019-03-18T15:52:11.004Z,0.60
2019-03-18T15:54:53.834Z,0.60
2019-03-18T15:57:29.814Z,1.03
2019-03-18T16:00:09.269Z,0.60
2019-03-18T16:02:49.153Z,0.72
2019-03-18T16:05:28.270Z,0.60
2019-03-18T16:08:08.437Z,0.70
2019-03-18T16:10:48.405Z,0.60
2019-03-18T16:13:28.447Z,0.60
2019-03-18T16:16:08.582Z,0.60
2019-03-18T16:18:48.535Z,0.90
2019-03-18T16:21:28.567Z,0.80
2019-03-18T16:24:08.417Z,2.93
2019-03-18T16:26:48.287Z,0.80
2019-03-18T16:29:27.381Z,0.80
2019-03-18T16:32:11.246Z,0.72
2019-03-18T16:34:48.313Z,1.20
2019-03-18T16:37:27.450Z,0.78
2019-03-18T16:40:06.673Z,0.80
2019-03-18T16:42:46.458Z,0.75
2019-03-18T16:45:26.599Z,0.83
2019-03-18T16:48:06.387Z,0.80
2019-03-18T16:56:45.971Z,1.13
2019-03-18T16:59:25.886Z,0.80
2019-03-18T17:02:06.037Z,0.72
2019-03-18T17:04:45.791Z,0.80
2019-03-18T17:07:25.701Z,0.73
2019-03-18T17:10:04.873Z,0.70
2019-03-18T17:12:45.026Z,0.80
2019-03-18T17:15:25.925Z,1.37
2019-03-18T17:18:05.745Z,0.90
2019-03-18T17:20:44.881Z,1.57
2019-03-18T17:23:24.365Z,0.80
2019-03-18T17:26:04.306Z,0.70
2019-03-18T17:28:46.150Z,0.80
2019-03-18T17:31:25.882Z,0.80
2019-03-18T17:34:05.063Z,0.83
2019-03-18T17:36:45.007Z,1.10
2019-03-18T17:39:25.090Z,2.93
2019-03-18T17:42:04.993Z,0.90
2019-03-18T17:44:44.199Z,1.27
2019-03-18T17:47:23.289Z,1.50
2019-03-18T17:50:03.311Z,0.83
2019-03-18T17:52:43.263Z,1.07
2019-03-18T17:55:22.553Z,1.33
2019-03-18T17:58:02.393Z,0.90
2019-03-18T18:00:44.139Z,1.13
2019-03-18T18:03:21.649Z,0.90
2019-03-18T18:06:07.779Z,1.27
2019-03-18T18:08:47.290Z,0.83
2019-03-18T18:11:27.185Z,1.30
2019-03-18T18:14:07.162Z,0.80
2019-03-18T18:16:47.121Z,0.90
2019-03-18T18:19:26.286Z,1.00
2019-03-18T18:25:04.455Z,1.93
2019-03-18T18:27:44.634Z,1.17
2019-03-18T18:30:24.445Z,2.20
2019-03-18T18:33:04.477Z,1.37
2019-03-18T18:35:44.444Z,1.20
2019-03-18T18:38:24.525Z,0.87
2019-03-18T18:41:04.363Z,1.20
2019-03-18T18:43:44.272Z,0.93
2019-03-18T18:46:21.497Z,1.40
2019-03-18T18:49:01.249Z,0.83
2019-03-18T18:51:40.294Z,1.37
2019-03-18T18:54:17.635Z,0.90
2019-03-18T18:56:57.568Z,1.93
2019-03-18T18:59:37.561Z,1.37
2019-03-18T19:02:16.760Z,1.57
2019-03-18T19:04:56.907Z,1.37
2019-03-18T19:07:36.831Z,2.77
2019-03-18T19:10:16.020Z,1.20
2019-03-18T19:12:55.558Z,1.13
2019-03-18T19:15:35.257Z,1.20
2019-03-18T19:18:14.457Z,1.33
2019-03-18T19:20:53.694Z,1.57
2019-03-18T19:23:37.912Z,1.07
2019-03-18T19:26:16.042Z,3.87
2019-03-18T19:28:55.975Z,0.90
2019-03-18T19:31:35.748Z,1.90
2019-03-18T19:37:27.839Z,1.30
2019-03-18T19:40:07.754Z,1.43
2019-03-18T19:42:47.840Z,1.10
2019-03-18T19:45:27.717Z,1.10
2019-03-18T19:48:06.808Z,1.50
2019-03-18T19:50:44.164Z,1.00
2019-03-18T19:53:24.065Z,1.30
2019-03-18T19:56:04.088Z,1.30
2019-03-18T19:58:41.366Z,1.53
2019-03-18T20:01:27.686Z,1.00
2019-03-18T20:04:07.267Z,2.67
2019-03-18T20:06:46.884Z,1.30
2019-03-18T20:09:26.093Z,1.00
2019-03-18T20:12:06.133Z,1.30
2019-03-18T20:14:46.142Z,1.30
2019-03-18T20:17:26.041Z,1.40
2019-03-18T20:20:06.037Z,1.50
2019-03-18T20:22:45.998Z,2.20
2019-03-18T20:25:26.067Z,1.20
2019-03-18T20:28:05.323Z,1.50
2019-03-18T20:30:44.414Z,1.37
2019-03-18T20:33:24.347Z,1.10
2019-03-18T20:36:04.292Z,1.17
2019-03-18T20:38:43.578Z,1.67
2019-03-18T20:41:23.600Z,1.27
2019-03-18T20:44:03.779Z,1.57
2019-03-18T20:46:43.681Z,1.03
2019-03-18T20:49:22.867Z,1.47
2019-03-18T20:52:00.235Z,1.37
2019-03-18T20:54:41.547Z,1.27
2019-03-18T20:57:21.206Z,1.30
2019-03-18T21:00:01.114Z,1.27
2019-03-18T21:02:40.313Z,1.30
2019-03-18T21:05:20.204Z,1.57
2019-03-18T21:07:59.390Z,1.40
2019-03-18T21:10:39.222Z,1.00
2019-03-18T21:13:19.166Z,1.70
2019-03-18T21:15:59.096Z,1.23
2019-03-18T21:18:39.072Z,1.10
2019-03-18T21:21:19.025Z,1.40
2019-03-18T21:23:59.038Z,1.50
2019-03-18T21:26:38.992Z,1.50
2019-03-18T21:29:18.754Z,2.37
2019-03-18T21:31:58.675Z,1.50
2019-03-18T21:34:38.709Z,1.37
2019-03-18T21:37:17.812Z,1.50
2019-03-18T21:39:56.962Z,3.53
2019-03-18T21:42:34.233Z,2.37
2019-03-18T21:45:13.916Z,1.60
2019-03-18T21:47:53.849Z,1.50
2019-03-18T21:50:33.653Z,1.60
2019-03-18T21:53:13.666Z,1.30
2019-03-18T21:55:53.685Z,1.30
2019-03-18T21:58:33.757Z,2.43
2019-03-18T22:01:13.877Z,1.40
2019-03-18T22:03:54.079Z,1.53
2019-03-18T22:06:34.054Z,2.00
2019-03-18T22:09:14.063Z,2.00
2019-03-18T22:11:53.213Z,1.50
2019-03-18T22:14:33.231Z,1.50
2019-03-18T22:17:12.409Z,1.30
2019-03-18T22:19:51.598Z,1.97
2019-03-18T22:22:28.900Z,1.80
2019-03-18T22:25:08.677Z,1.60
2019-03-18T22:27:48.528Z,1.43
2019-03-18T22:30:28.467Z,1.30
2019-03-18T22:33:08.497Z,1.53
2019-03-18T22:35:48.342Z,1.50
2019-03-18T22:38:25.847Z,1.37
2019-03-18T22:41:11.969Z,1.40
2019-03-18T22:43:51.873Z,1.40
2019-03-18T22:46:32.002Z,1.90
2019-03-18T22:49:11.932Z,2.00
2019-03-18T22:51:51.199Z,2.20
2019-03-18T22:54:31.187Z,1.43
2019-03-18T22:57:08.515Z,2.20
2019-03-18T22:59:48.210Z,2.90
2019-03-18T23:02:28.113Z,1.83
2019-03-18T23:05:08.321Z,3.10
2019-03-18T23:07:48.256Z,1.90
2019-03-18T23:10:28.419Z,1.40
2019-03-18T23:13:08.366Z,2.27
2019-03-18T23:15:48.229Z,1.57
2019-03-18T23:18:27.381Z,1.63
2019-03-18T23:21:07.241Z,1.63
2019-03-18T23:23:47.290Z,2.23
2019-03-18T23:26:26.440Z,1.70
2019-03-18T23:29:05.502Z,1.70
2019-03-18T23:31:45.525Z,1.93
2019-03-18T23:34:25.516Z,1.90
2019-03-18T23:37:05.365Z,1.70
2019-03-18T23:39:45.465Z,1.93
2019-03-18T23:42:24.561Z,1.70
2019-03-18T23:45:03.710Z,2.20
2019-03-18T23:47:41.046Z,1.80
2019-03-18T23:50:20.818Z,1.90
2019-03-18T23:53:00.901Z,2.67
2019-03-18T23:55:40.649Z,1.43
2019-03-18T23:58:19.678Z,1.60
